createdAt,value
2022-08-10T00:01:53.801Z,102319.25
2022-08-10T00:04:22.549Z,102312.38
2022-08-10T00:06:54.618Z,102309.88
2022-08-10T00:09:22.848Z,102308.63
2022-08-10T00:11:50.285Z,102313.16
2022-08-10T00:14:17.696Z,102302.97
2022-08-10T00:16:44.657Z,102304.19
2022-08-10T00:19:11.488Z,102306.88
2022-08-10T00:21:38.381Z,102299.00
2022-08-10T00:24:05.375Z,102301.03
2022-08-10T00:27:52.856Z,102300.22
2022-08-10T00:29:19.230Z,102291.72
2022-08-10T00:31:58.537Z,102295.44
2022-08-10T00:34:30.734Z,102292.31
2022-08-10T00:36:58.057Z,102290.47
2022-08-10T00:39:26.016Z,102286.09
2022-08-10T00:42:02.198Z,102290.03
2022-08-10T00:44:42.333Z,102289.53
2022-08-10T00:47:36.054Z,102288.28
2022-08-10T00:49:57.898Z,102287.19
2022-08-10T00:52:27.074Z,102285.25
2022-08-10T00:54:55.237Z,102293.69
2022-08-10T00:57:22.462Z,102278.00
2022-08-10T00:59:59.233Z,102284.97
2022-08-10T01:02:32.756Z,102269.31
2022-08-10T01:05:06.612Z,102282.69
2022-08-10T01:08:04.627Z,102283.72
2022-08-10T01:10:43.335Z,102280.41
2022-08-10T01:13:32.199Z,102278.91
2022-08-10T01:16:33.019Z,102275.78
2022-08-10T01:19:46.070Z,102277.81
2022-08-10T01:22:34.162Z,102272.84
2022-08-10T01:25:00.947Z,102268.50
2022-08-10T01:27:39.662Z,102279.88
2022-08-10T01:30:06.638Z,102280.06
2022-08-10T01:32:46.584Z,102272.19
2022-08-10T01:35:35.586Z,102270.75
2022-08-10T01:38:04.477Z,102272.75
2022-08-10T01:40:35.866Z,102267.78
2022-08-10T01:43:08.178Z,102266.31
2022-08-10T01:45:45.006Z,102266.31
2022-08-10T01:48:28.991Z,102263.00
2022-08-10T01:51:27.222Z,102260.50
2022-08-10T01:54:10.641Z,102247.44
2022-08-10T01:56:43.975Z,102253.19
2022-08-10T01:59:22.328Z,102249.84
2022-08-10T02:01:52.198Z,102247.56
2022-08-10T02:04:21.190Z,102248.56
2022-08-10T02:06:51.680Z,102248.94
2022-08-10T02:09:25.485Z,102256.53
2022-08-10T02:12:05.202Z,102252.75
2022-08-10T02:14:36.680Z,102249.78
2022-08-10T02:17:08.174Z,102252.38
2022-08-10T02:19:38.295Z,102248.03
2022-08-10T02:22:35.182Z,102253.38
2022-08-10T02:24:56.312Z,102250.69
2022-08-10T02:27:25.140Z,102260.56
2022-08-10T02:29:54.168Z,102251.72
2022-08-10T02:32:38.175Z,102258.09
2022-08-10T02:35:13.961Z,102256.44
2022-08-10T02:37:52.943Z,102257.63
2022-08-10T02:45:01.158Z,102262.97
2022-08-10T02:45:23.506Z,102263.19
2022-08-10T02:46:39.809Z,102263.53
2022-08-10T02:49:10.447Z,102256.88
2022-08-10T02:52:06.639Z,102243.22
2022-08-10T02:54:38.981Z,102247.28
2022-08-10T02:57:27.379Z,102246.25
2022-08-10T02:59:57.753Z,102237.94
2022-08-10T03:02:40.033Z,102233.81
2022-08-10T03:05:12.393Z,102230.31
2022-08-10T03:08:05.016Z,102226.97
2022-08-10T03:10:34.253Z,102226.69
2022-08-10T03:13:04.397Z,102225.41
2022-08-10T03:15:33.707Z,102223.28
2022-08-10T03:18:02.037Z,102221.28
2022-08-10T03:20:39.495Z,102227.03
2022-08-10T03:23:23.531Z,102221.22
2022-08-10T03:25:54.579Z,102225.22
2022-08-10T03:28:26.093Z,102214.09
2022-08-10T03:30:54.282Z,102217.31
2022-08-10T03:33:23.430Z,102208.81
2022-08-10T03:36:44.089Z,102214.06
2022-08-10T03:38:40.762Z,102207.97
2022-08-10T03:41:11.747Z,102205.00
2022-08-10T03:43:47.977Z,102208.84
2022-08-10T03:46:18.478Z,102212.22
2022-08-10T03:48:49.837Z,102207.91
2022-08-10T03:51:19.051Z,102206.88
2022-08-10T03:54:04.189Z,102208.53
2022-08-10T03:56:34.931Z,102202.38
2022-08-10T03:59:02.620Z,102209.38
2022-08-10T04:02:44.494Z,102212.06
2022-08-10T04:04:23.274Z,102205.69
2022-08-10T04:06:54.850Z,102205.53
2022-08-10T04:09:24.085Z,102207.16
2022-08-10T04:11:58.622Z,102203.31
2022-08-10T04:14:47.525Z,102204.78
2022-08-10T04:17:14.145Z,102197.97
2022-08-10T04:19:46.241Z,102204.50
2022-08-10T04:22:21.254Z,102206.38
2022-08-10T04:24:54.008Z,102210.22
2022-08-10T04:27:20.721Z,102207.06
2022-08-10T04:29:49.347Z,102203.28
2022-08-10T04:32:20.154Z,102198.28
2022-08-10T04:34:47.888Z,102202.16
2022-08-10T04:37:18.467Z,102197.34
2022-08-10T04:39:46.107Z,102210.56
2022-08-10T04:42:13.401Z,102200.25
2022-08-10T04:44:42.139Z,102207.25
2022-08-10T04:47:09.220Z,102201.25
2022-08-10T04:49:54.897Z,102205.94
2022-08-10T04:52:29.417Z,102212.44
2022-08-10T04:54:57.051Z,102217.28
2022-08-10T04:57:23.983Z,102206.13
2022-08-10T04:59:50.944Z,102212.16
2022-08-10T05:02:31.560Z,102211.84
2022-08-10T05:04:59.390Z,102223.56
2022-08-10T05:07:26.465Z,102224.72
2022-08-10T05:10:02.648Z,102228.91
2022-08-10T05:12:38.207Z,102235.88
2022-08-10T05:15:10.575Z,102237.72
2022-08-10T05:17:39.099Z,102239.38
2022-08-10T05:20:08.276Z,102233.88
2022-08-10T05:22:40.896Z,102239.88
2022-08-10T05:25:12.017Z,102239.88
2022-08-10T05:27:40.006Z,102246.56
2022-08-10T05:30:08.594Z,102244.91
2022-08-10T05:32:36.239Z,102251.72
2022-08-10T05:35:23.758Z,102250.56
2022-08-10T05:38:09.834Z,102264.38
2022-08-10T05:40:46.974Z,102259.88
2022-08-10T05:43:16.898Z,102261.56
2022-08-10T05:46:19.509Z,102266.22
2022-08-10T05:48:54.830Z,102264.38
2022-08-10T05:51:19.215Z,102260.88
2022-08-10T05:54:01.649Z,102260.53
2022-08-10T05:56:53.372Z,102252.81
2022-08-10T06:00:10.979Z,102260.34
2022-08-10T06:02:33.175Z,102257.84
2022-08-10T06:04:57.367Z,102258.69
2022-08-10T06:07:27.524Z,102267.53
2022-08-10T06:09:59.293Z,102263.03
2022-08-10T06:12:53.373Z,102263.34
2022-08-10T06:15:21.676Z,102263.03
2022-08-10T06:18:08.907Z,102267.84
2022-08-10T06:20:36.952Z,102266.31
2022-08-10T06:23:05.158Z,102261.91
2022-08-10T06:26:09.994Z,102266.72
2022-08-10T06:28:20.847Z,102266.19
2022-08-10T06:30:49.507Z,102265.19
2022-08-10T06:33:19.014Z,102264.34
2022-08-10T06:35:48.756Z,102263.50
2022-08-10T06:38:17.350Z,102256.53
2022-08-10T06:40:47.420Z,102263.50
2022-08-10T06:43:17.807Z,102264.00
2022-08-10T06:46:07.470Z,102263.47
2022-08-10T06:48:48.088Z,102261.41
2022-08-10T06:51:20.675Z,102260.19
2022-08-10T06:53:52.331Z,102256.34
2022-08-10T06:56:36.575Z,102257.19
2022-08-10T06:59:26.288Z,102255.44
2022-08-10T07:02:04.853Z,102257.03
2022-08-10T07:04:35.877Z,102254.56
2022-08-10T07:07:06.391Z,102264.25
2022-08-10T07:09:37.855Z,102261.03
2022-08-10T07:12:09.118Z,102255.97
2022-08-10T07:14:43.755Z,102255.59
2022-08-10T07:17:15.583Z,102242.69
2022-08-10T07:19:49.764Z,102252.88
2022-08-10T07:23:51.892Z,102248.19
2022-08-10T07:25:08.938Z,102246.78
2022-08-10T07:27:58.135Z,102252.44
2022-08-10T07:30:28.525Z,102238.50
2022-08-10T07:32:56.523Z,102243.97
2022-08-10T07:35:26.736Z,102247.56
2022-08-10T07:37:55.450Z,102259.84
2022-08-10T07:40:23.710Z,102257.06
2022-08-10T07:42:56.406Z,102260.41
2022-08-10T07:45:25.697Z,102261.50
2022-08-10T07:48:01.440Z,102267.13
2022-08-10T07:50:35.329Z,102255.03
2022-08-10T07:53:04.488Z,102257.59
2022-08-10T07:56:04.214Z,102260.81
2022-08-10T07:58:25.423Z,102247.44
2022-08-10T08:00:55.063Z,102255.03
2022-08-10T08:03:25.466Z,102253.44
2022-08-10T08:05:58.514Z,102249.81
2022-08-10T08:08:32.262Z,102253.38
2022-08-10T08:11:00.161Z,102245.78
2022-08-10T08:13:28.837Z,102246.75
2022-08-10T08:16:18.640Z,102246.94
2022-08-10T08:18:58.179Z,102253.50
2022-08-10T08:24:04.875Z,102247.94
2022-08-10T08:24:32.852Z,102250.63
2022-08-10T08:27:05.880Z,102248.16
2022-08-10T08:29:35.608Z,102253.94
2022-08-10T08:32:06.536Z,102249.84
2022-08-10T08:34:35.007Z,102250.13
2022-08-10T08:37:03.410Z,102253.06
2022-08-10T08:39:33.677Z,102237.91
2022-08-10T08:42:38.598Z,102247.63
2022-08-10T08:45:31.743Z,102233.28
2022-08-10T08:48:17.127Z,102229.81
2022-08-10T08:51:14.944Z,102228.41
2022-08-10T08:54:23.227Z,102224.72
2022-08-10T08:57:11.432Z,102222.94
2022-08-10T08:59:55.944Z,102216.78
2022-08-10T09:02:54.733Z,102210.19
2022-08-10T09:05:58.669Z,102217.66
2022-08-10T09:09:04.234Z,102207.78
2022-08-10T09:11:50.868Z,102201.63
2022-08-10T09:14:26.158Z,102193.44
2022-08-10T09:17:00.869Z,102198.84
2022-08-10T09:19:38.471Z,102195.16
2022-08-10T09:22:32.818Z,102195.59
2022-08-10T09:25:34.429Z,102194.47
2022-08-10T09:28:05.574Z,102187.47
2022-08-10T09:36:23.158Z,102194.16
2022-08-10T09:37:24.165Z,102185.28
2022-08-10T09:40:59.768Z,102188.63
2022-08-10T09:43:37.529Z,102184.44
2022-08-10T09:46:16.734Z,102186.75
2022-08-10T09:48:54.667Z,102183.00
2022-08-10T09:51:51.508Z,102174.31
2022-08-10T09:54:27.153Z,102175.75
2022-08-10T09:57:44.703Z,102177.59
2022-08-10T10:00:14.279Z,102169.69
2022-08-10T10:02:44.416Z,102164.66
2022-08-10T10:05:17.099Z,102171.03
2022-08-10T10:07:57.863Z,102158.38
2022-08-10T10:10:33.282Z,102162.72
2022-08-10T10:13:03.786Z,102154.19
2022-08-10T10:15:59.656Z,102155.38
2022-08-10T10:18:48.161Z,102147.84
2022-08-10T10:21:54.238Z,102146.94
2022-08-10T10:24:35.928Z,102148.13
2022-08-10T10:27:48.476Z,102145.97
2022-08-10T10:30:19.324Z,102141.81
2022-08-10T10:33:08.448Z,102135.75
2022-08-10T10:35:56.092Z,102140.78
2022-08-10T10:38:29.955Z,102144.72
2022-08-10T10:41:13.562Z,102131.88
2022-08-10T10:44:01.797Z,102133.06
2022-08-10T10:46:37.309Z,102129.34
2022-08-10T10:49:22.893Z,102132.34
2022-08-10T10:52:38.074Z,102128.16
2022-08-10T10:55:22.501Z,102116.53
2022-08-10T10:58:30.602Z,102126.69
2022-08-10T11:01:09.305Z,102130.34
2022-08-10T11:03:52.573Z,102122.66
2022-08-10T11:06:47.524Z,102116.81
2022-08-10T11:10:03.737Z,102117.06
2022-08-10T11:12:54.742Z,102113.44
2022-08-10T11:15:44.996Z,102107.97
2022-08-10T11:18:49.918Z,102119.53
2022-08-10T11:21:41.519Z,102103.25
2022-08-10T11:24:48.497Z,102110.69
2022-08-10T11:27:23.278Z,102111.94
2022-08-10T11:29:59.060Z,102098.81
2022-08-10T11:33:03.401Z,102097.91
2022-08-10T11:36:09.304Z,102096.88
2022-08-10T11:38:57.652Z,102097.06
2022-08-10T11:42:09.668Z,102099.78
2022-08-10T11:44:40.070Z,102083.72
2022-08-10T11:47:18.787Z,102084.91
2022-08-10T11:50:00.288Z,102081.53
2022-08-10T11:53:04.256Z,102074.88
2022-08-10T11:55:33.020Z,102069.59
2022-08-10T11:58:25.648Z,102071.22
2022-08-10T12:00:56.117Z,102069.34
2022-08-10T12:03:24.796Z,102066.22
2022-08-10T12:05:55.096Z,102069.63
2022-08-10T12:10:02.210Z,102069.41
2022-08-10T12:11:24.458Z,102065.19
2022-08-10T12:14:23.975Z,102064.38
2022-08-10T12:16:58.287Z,102064.88
2022-08-10T12:19:59.718Z,102056.78
2022-08-10T12:22:31.578Z,102043.63
2022-08-10T12:25:07.746Z,102039.56
2022-08-10T12:27:37.955Z,102048.63
2022-08-10T12:30:13.349Z,102045.09
2022-08-10T12:32:44.156Z,102048.16
2022-08-10T12:35:26.443Z,102051.81
2022-08-10T12:38:08.820Z,102039.50
2022-08-10T12:40:55.707Z,102046.31
2022-08-10T12:44:05.111Z,102036.91
2022-08-10T12:46:33.099Z,102041.72
2022-08-10T12:49:17.970Z,102040.69
2022-08-10T12:52:14.405Z,102041.84
2022-08-10T12:54:43.259Z,102030.00
2022-08-10T12:57:16.478Z,102034.69
2022-08-10T12:59:50.930Z,102028.56
2022-08-10T13:02:38.075Z,102034.09
2022-08-10T13:05:08.205Z,102028.69
2022-08-10T13:08:26.110Z,102018.72
2022-08-10T13:10:25.874Z,102014.34
2022-08-10T13:12:57.076Z,102020.81
2022-08-10T13:15:46.214Z,102016.81
2022-08-10T13:18:19.726Z,102016.13
2022-08-10T13:20:52.351Z,102004.81
2022-08-10T13:23:28.350Z,102001.06
2022-08-10T13:25:58.321Z,102003.53
2022-08-10T13:28:40.036Z,101994.38
2022-08-10T13:31:16.647Z,101994.97
2022-08-10T13:34:44.027Z,101990.72
2022-08-10T13:36:59.130Z,101991.31
2022-08-10T13:39:59.324Z,101994.63
2022-08-10T13:42:31.858Z,101988.13
2022-08-10T13:45:07.847Z,101993.09
2022-08-10T13:47:48.057Z,101987.69
2022-08-10T13:50:33.483Z,101981.09
2022-08-10T13:53:11.607Z,101983.22
2022-08-10T13:55:55.514Z,101991.09
2022-08-10T13:58:33.931Z,101987.09
2022-08-10T14:01:10.106Z,101981.94
2022-08-10T14:03:40.197Z,101983.81
2022-08-10T14:06:12.089Z,101977.31
2022-08-10T14:08:41.491Z,101979.47
2022-08-10T14:11:14.718Z,101971.09
2022-08-10T14:13:45.701Z,101986.50
2022-08-10T14:16:13.894Z,101971.91
2022-08-10T14:18:45.038Z,101969.19
2022-08-10T14:21:13.924Z,101974.88
2022-08-10T14:23:48.635Z,101969.47
2022-08-10T14:26:23.593Z,101963.00
2022-08-10T14:28:54.983Z,101967.09
2022-08-10T14:31:25.834Z,101969.56
2022-08-10T14:33:56.304Z,101967.44
2022-08-10T14:36:37.928Z,101961.69
2022-08-10T14:39:09.069Z,101963.56
2022-08-10T14:42:04.223Z,101961.34
2022-08-10T14:44:30.573Z,101957.59
2022-08-10T14:47:07.951Z,101958.38
2022-08-10T14:49:57.049Z,101952.63
2022-08-10T14:52:44.274Z,101959.91
2022-08-10T14:55:19.799Z,101945.34
2022-08-10T14:58:17.039Z,101948.66
2022-08-10T15:00:42.777Z,101946.50
2022-08-10T15:04:00.813Z,101950.38
2022-08-10T15:06:07.742Z,101942.84
2022-08-10T15:08:47.038Z,101937.44
2022-08-10T15:12:13.535Z,101931.69
2022-08-10T15:14:29.318Z,101939.22
2022-08-10T15:16:55.346Z,101932.97
2022-08-10T15:20:00.636Z,101931.09
2022-08-10T15:22:47.398Z,101931.09
2022-08-10T15:25:05.118Z,101938.38
2022-08-10T15:27:54.623Z,101922.66
2022-08-10T15:30:33.144Z,101915.09
2022-08-10T15:33:56.886Z,101918.88
2022-08-10T15:36:33.605Z,101927.22
2022-08-10T15:39:03.299Z,101914.53
2022-08-10T15:41:58.404Z,101904.44
2022-08-10T15:44:43.251Z,101914.44
2022-08-10T15:47:34.791Z,101909.00
2022-08-10T15:50:24.869Z,101910.75
2022-08-10T15:53:07.290Z,101911.59
2022-08-10T15:55:51.798Z,101915.09
2022-08-10T15:58:39.368Z,101908.66
2022-08-10T16:02:12.944Z,101909.69
2022-08-10T16:04:32.320Z,101906.75
2022-08-10T16:07:06.342Z,101912.16
2022-08-10T16:10:10.554Z,101901.31
2022-08-10T16:12:39.359Z,101907.00
2022-08-10T16:15:11.285Z,101910.97
2022-08-10T16:18:02.208Z,101899.59
2022-08-10T16:20:53.407Z,101909.59
2022-08-10T16:23:34.993Z,101899.59
2022-08-10T16:26:14.829Z,101900.66
2022-08-10T16:28:56.726Z,101899.59
2022-08-10T16:31:26.040Z,101892.53
2022-08-10T16:33:55.968Z,101893.59
2022-08-10T16:36:32.397Z,101892.53
2022-08-10T16:39:00.182Z,101891.94
2022-08-10T16:42:04.154Z,101888.41
2022-08-10T16:44:18.747Z,101889.00
2022-08-10T16:46:47.725Z,101882.78
2022-08-10T16:49:18.120Z,101876.78
2022-08-10T16:51:50.479Z,101872.28
2022-08-10T16:54:26.334Z,101879.59
2022-08-10T16:56:59.468Z,101875.72
2022-08-10T16:59:30.844Z,101863.25
2022-08-10T17:02:01.979Z,101868.31
2022-08-10T17:04:31.811Z,101861.53
2022-08-10T17:07:02.406Z,101854.47
2022-08-10T17:09:34.524Z,101866.09
2022-08-10T17:12:13.709Z,101853.06
2022-08-10T17:14:42.003Z,101865.19
2022-08-10T17:17:14.073Z,101856.47
2022-08-10T17:19:45.227Z,101854.81
2022-08-10T17:22:19.414Z,101856.13
2022-08-10T17:25:04.274Z,101854.47
2022-08-10T17:28:32.948Z,101843.66
2022-08-10T17:30:34.042Z,101845.53
2022-08-10T17:33:14.927Z,101856.34
2022-08-10T17:35:45.731Z,101844.16
2022-08-10T17:38:22.950Z,101843.34
2022-08-10T17:41:08.109Z,101850.00
2022-08-10T17:43:46.093Z,101857.56
2022-08-10T17:46:26.511Z,101851.56
2022-08-10T17:48:55.034Z,101846.63
2022-08-10T17:51:28.721Z,101860.38
2022-08-10T17:53:58.604Z,101861.66
2022-08-10T17:56:26.394Z,101857.91
2022-08-10T17:58:58.193Z,101860.88
2022-08-10T18:01:41.842Z,101851.34
2022-08-10T18:04:19.410Z,101863.09
2022-08-10T18:06:56.754Z,101872.50
2022-08-10T18:09:47.871Z,101858.00
2022-08-10T18:12:19.194Z,101862.00
2022-08-10T18:14:50.300Z,101860.38
2022-08-10T18:17:48.474Z,101866.00
2022-08-10T18:20:19.882Z,101865.66
2022-08-10T18:22:50.576Z,101860.13
2022-08-10T18:25:32.244Z,101857.06
2022-08-10T18:28:05.051Z,101856.72
2022-08-10T18:30:37.038Z,101855.75
2022-08-10T18:33:10.965Z,101855.41
2022-08-10T18:35:39.856Z,101864.78
2022-08-10T18:38:08.262Z,101867.75
2022-08-10T18:40:38.866Z,101867.16
2022-08-10T18:44:07.003Z,101869.25
2022-08-10T18:46:00.126Z,101872.66
2022-08-10T18:48:37.374Z,101871.47
2022-08-10T18:51:06.326Z,101873.00
2022-08-10T18:53:37.554Z,101876.38
2022-08-10T18:56:22.995Z,101869.81
2022-08-10T18:59:27.123Z,101870.03
2022-08-10T19:02:15.119Z,101870.91
2022-08-10T19:04:48.094Z,101877.84
2022-08-10T19:07:51.329Z,101875.56
2022-08-10T19:10:57.862Z,101880.03
2022-08-10T19:13:53.869Z,101876.75
2022-08-10T19:16:26.978Z,101873.69
2022-08-10T19:19:25.914Z,101871.44
2022-08-10T19:22:03.770Z,101872.72
2022-08-10T19:24:46.430Z,101877.72
2022-08-10T19:27:32.001Z,101876.34
2022-08-10T19:30:13.698Z,101873.50
2022-08-10T19:33:02.678Z,101868.53
2022-08-10T19:35:29.777Z,101872.53
2022-08-10T19:38:32.041Z,101874.63
2022-08-10T19:41:32.162Z,101872.59
2022-08-10T19:44:34.227Z,101881.38
2022-08-10T19:47:43.230Z,101876.66
2022-08-10T19:50:42.238Z,101885.44
2022-08-10T19:54:00.865Z,101883.78
2022-08-10T19:56:40.147Z,101888.34
2022-08-10T20:00:16.311Z,101887.53
2022-08-10T20:02:30.034Z,101889.59
2022-08-10T20:05:11.806Z,101888.63
2022-08-10T20:07:47.578Z,101891.75
2022-08-10T20:10:47.033Z,101892.00
2022-08-10T20:13:37.654Z,101892.44
2022-08-10T20:16:11.935Z,101889.16
2022-08-10T20:18:49.312Z,101884.00
2022-08-10T20:21:25.978Z,101889.59
2022-08-10T20:24:01.538Z,101887.97
2022-08-10T20:26:36.012Z,101889.84
2022-08-10T20:29:57.138Z,101886.53
2022-08-10T20:32:13.065Z,101883.22
2022-08-10T20:34:53.369Z,101892.59
2022-08-10T20:37:45.005Z,101877.47
2022-08-10T20:40:25.606Z,101884.16
2022-08-10T20:43:14.612Z,101887.50
2022-08-10T20:46:09.380Z,101891.47
2022-08-10T20:49:16.216Z,101891.47
2022-08-10T20:51:58.384Z,101904.31
2022-08-10T20:54:34.546Z,101902.91
2022-08-10T20:57:55.608Z,101907.69
2022-08-10T21:00:24.030Z,101904.84
2022-08-10T21:03:07.570Z,101897.22
2022-08-10T21:06:06.728Z,101903.06
2022-08-10T21:08:45.576Z,101896.44
2022-08-10T21:11:37.493Z,101901.44
2022-08-10T21:14:43.838Z,101899.22
2022-08-10T21:17:41.306Z,101900.25
2022-08-10T21:23:15.335Z,101893.31
2022-08-10T21:26:08.638Z,101892.91
2022-08-10T21:28:44.783Z,101887.13
2022-08-10T21:31:50.485Z,101891.69
2022-08-10T21:34:52.145Z,101881.38
2022-08-10T21:37:40.188Z,101903.13
2022-08-10T21:40:36.103Z,101889.88
2022-08-10T21:43:59.514Z,101890.91
2022-08-10T21:47:07.582Z,101892.63
2022-08-10T21:50:03.998Z,101888.50
2022-08-10T21:53:43.904Z,101886.25
2022-08-10T21:56:44.249Z,101887.13
2022-08-10T21:59:58.814Z,101880.28
2022-08-10T22:02:54.621Z,101878.06
2022-08-10T22:05:49.290Z,101877.88
2022-08-10T22:08:56.798Z,101872.78
2022-08-10T22:11:47.632Z,101875.66
2022-08-10T22:14:42.588Z,101883.75
2022-08-10T22:17:59.401Z,101883.13
2022-08-10T22:20:50.447Z,101880.84
2022-08-10T22:23:41.775Z,101886.63
2022-08-10T22:27:00.591Z,101876.53
2022-08-10T22:31:28.919Z,101894.72
2022-08-10T22:33:38.776Z,101871.22
2022-08-10T22:36:46.561Z,101872.66
2022-08-10T22:40:05.791Z,101878.09
2022-08-10T22:43:11.036Z,101885.16
2022-08-10T22:46:29.811Z,101890.72
2022-08-10T22:49:01.986Z,101891.19
2022-08-10T22:51:52.928Z,101890.75
2022-08-10T22:54:58.389Z,101887.47
2022-08-10T22:57:44.410Z,101889.78
2022-08-10T23:00:19.763Z,101890.19
2022-08-10T23:03:11.111Z,101881.72
2022-08-10T23:06:04.441Z,101888.97
2022-08-10T23:08:43.448Z,101886.28
2022-08-10T23:11:23.399Z,101887.31
2022-08-10T23:13:59.026Z,101893.31
2022-08-10T23:16:47.555Z,101890.63
2022-08-10T23:19:26.638Z,101902.41
2022-08-10T23:22:02.989Z,101890.44
2022-08-10T23:24:44.420Z,101893.13
2022-08-10T23:27:37.323Z,101888.38
2022-08-10T23:30:10.761Z,101893.13
2022-08-10T23:32:46.435Z,101896.03
2022-08-10T23:36:29.521Z,101889.81
2022-08-10T23:38:11.271Z,101888.41
2022-08-10T23:40:44.035Z,101880.78
2022-08-10T23:43:19.217Z,101886.53
2022-08-10T23:45:54.428Z,101886.13
2022-08-10T23:48:28.248Z,101884.25
2022-08-10T23:50:59.551Z,101879.09
2022-08-10T23:53:39.028Z,101878.47
2022-08-10T23:56:22.778Z,101877.03
2022-08-10T23:59:00.216Z,101878.50
